createdAt,value
2023-05-22T00:00:57.095Z,101200.88
2023-05-22T00:03:27.086Z,101196.75
2023-05-22T00:06:00.112Z,101190.28
2023-05-22T00:08:29.541Z,101186.06
2023-05-22T00:11:01.896Z,101192.31
2023-05-22T00:13:28.635Z,101197.59
2023-05-22T00:15:55.740Z,101193.84
2023-05-22T00:18:22.627Z,101189.69
2023-05-22T00:20:50.322Z,101184.22
2023-05-22T00:23:17.716Z,101192.13
2023-05-22T00:25:45.024Z,101184.66
2023-05-22T00:28:12.119Z,101184.94
2023-05-22T00:30:42.486Z,101182.63
2023-05-22T00:33:38.485Z,101180.69
2023-05-22T00:36:07.550Z,101185.47
2023-05-22T00:38:37.702Z,101183.28
2023-05-22T00:41:07.118Z,101175.94
2023-05-22T00:43:34.636Z,101189.63
2023-05-22T00:46:01.624Z,101182.81
2023-05-22T00:48:28.535Z,101184.38
2023-05-22T00:50:57.496Z,101181.28
2023-05-22T00:53:25.546Z,101174.28
2023-05-22T00:55:54.305Z,101178.50
2023-05-22T00:58:26.371Z,101174.66
2023-05-22T01:00:53.456Z,101173.19
2023-05-22T01:03:27.001Z,101177.72
2023-05-22T01:05:54.882Z,101181.69
2023-05-22T01:08:24.146Z,101189.25
2023-05-22T01:10:57.572Z,101176.72
2023-05-22T01:13:39.519Z,101180.44
2023-05-22T01:16:21.548Z,101169.44
2023-05-22T01:18:59.974Z,101171.00
2023-05-22T01:21:46.490Z,101172.09
2023-05-22T01:24:49.906Z,101167.38
2023-05-22T01:27:28.734Z,101156.78
2023-05-22T01:29:56.100Z,101154.59
2023-05-22T01:32:28.809Z,101152.34
2023-05-22T01:35:01.556Z,101157.88
2023-05-22T01:37:31.034Z,101150.41
2023-05-22T01:40:00.372Z,101149.75
2023-05-22T01:42:27.725Z,101156.84
2023-05-22T01:44:54.543Z,101145.25
2023-05-22T01:47:24.268Z,101150.03
2023-05-22T01:49:52.142Z,101151.03
2023-05-22T01:52:37.274Z,101143.69
2023-05-22T01:55:14.827Z,101146.16
2023-05-22T01:58:04.740Z,101147.66
2023-05-22T02:00:34.997Z,101143.13
2023-05-22T02:03:07.798Z,101147.56
2023-05-22T02:05:36.967Z,101146.22
2023-05-22T02:08:03.946Z,101147.34
2023-05-22T02:10:34.372Z,101148.53
2023-05-22T02:13:01.808Z,101152.50
2023-05-22T02:15:30.235Z,101153.38
2023-05-22T02:18:02.506Z,101150.44
2023-05-22T02:20:29.584Z,101148.97
2023-05-22T02:22:57.753Z,101149.22
2023-05-22T02:25:24.651Z,101147.13
2023-05-22T02:27:51.387Z,101145.44
2023-05-22T02:30:20.152Z,101145.97
2023-05-22T02:32:49.845Z,101151.00
2023-05-22T02:35:16.748Z,101151.91
2023-05-22T02:37:44.944Z,101149.91
2023-05-22T02:40:13.027Z,101147.47
2023-05-22T02:42:39.932Z,101142.03
2023-05-22T02:45:07.229Z,101145.16
2023-05-22T02:47:34.105Z,101143.56
2023-05-22T02:50:00.836Z,101140.19
2023-05-22T02:52:28.418Z,101139.44
2023-05-22T02:54:55.796Z,101127.94
2023-05-22T02:57:23.209Z,101133.69
2023-05-22T02:59:49.968Z,101135.00
2023-05-22T03:02:17.772Z,101140.13
2023-05-22T03:04:44.602Z,101131.56
2023-05-22T03:07:12.356Z,101129.44
2023-05-22T03:09:39.500Z,101132.47
2023-05-22T03:12:06.744Z,101139.53
2023-05-22T03:14:34.767Z,101126.38
2023-05-22T03:17:02.341Z,101122.69
2023-05-22T03:19:29.109Z,101126.19
2023-05-22T03:21:56.531Z,101124.50
2023-05-22T03:24:23.326Z,101128.09
2023-05-22T03:26:50.178Z,101131.03
2023-05-22T03:29:23.925Z,101132.72
2023-05-22T03:31:50.783Z,101123.34
2023-05-22T03:34:17.528Z,101127.94
2023-05-22T03:36:47.377Z,101136.75
2023-05-22T03:39:16.442Z,101124.78
2023-05-22T03:41:52.338Z,101133.41
2023-05-22T03:44:19.377Z,101141.28
2023-05-22T03:46:46.400Z,101140.44
2023-05-22T03:49:13.247Z,101142.31
2023-05-22T03:51:40.053Z,101139.94
2023-05-22T03:54:06.801Z,101142.84
2023-05-22T03:56:33.642Z,101135.19
2023-05-22T03:59:00.621Z,101138.53
2023-05-22T04:01:27.576Z,101146.75
2023-05-22T04:03:54.325Z,101145.91
2023-05-22T04:06:21.918Z,101136.06
2023-05-22T04:08:49.225Z,101139.69
2023-05-22T04:11:16.332Z,101135.09
2023-05-22T04:13:43.159Z,101140.94
2023-05-22T04:16:10.570Z,101137.84
2023-05-22T04:18:37.728Z,101134.06
2023-05-22T04:21:08.192Z,101133.50
2023-05-22T04:23:35.462Z,101149.75
2023-05-22T04:26:04.465Z,101151.88
2023-05-22T04:28:31.323Z,101150.28
2023-05-22T04:30:58.179Z,101161.88
2023-05-22T04:33:25.064Z,101151.19
2023-05-22T04:35:52.047Z,101142.97
2023-05-22T04:38:18.924Z,101150.47
2023-05-22T04:40:45.647Z,101152.69
2023-05-22T04:43:12.732Z,101155.50
2023-05-22T04:45:42.249Z,101159.06
2023-05-22T04:48:09.356Z,101159.94
2023-05-22T04:50:38.768Z,101146.41
2023-05-22T04:53:06.380Z,101147.94
2023-05-22T04:55:37.043Z,101152.31
2023-05-22T04:58:05.955Z,101159.22
2023-05-22T05:00:32.719Z,101163.47
2023-05-22T05:03:00.669Z,101159.69
2023-05-22T05:05:27.645Z,101156.22
2023-05-22T05:07:54.658Z,101157.63
2023-05-22T05:10:22.324Z,101157.81
2023-05-22T05:12:49.279Z,101171.28
2023-05-22T05:15:16.207Z,101161.41
2023-05-22T05:17:43.318Z,101171.16
2023-05-22T05:20:10.521Z,101162.81
2023-05-22T05:22:38.173Z,101170.09
2023-05-22T05:25:07.804Z,101168.84
2023-05-22T05:27:35.858Z,101166.84
2023-05-22T05:30:02.830Z,101159.38
2023-05-22T05:32:41.971Z,101167.00
2023-05-22T05:35:29.729Z,101164.97
2023-05-22T05:38:06.914Z,101172.75
2023-05-22T05:40:34.532Z,101176.31
2023-05-22T05:43:03.999Z,101174.97
2023-05-22T05:45:30.855Z,101174.44
2023-05-22T05:47:58.401Z,101177.59
2023-05-22T05:50:25.152Z,101184.06
2023-05-22T05:52:52.111Z,101180.09
2023-05-22T05:55:19.837Z,101178.97
2023-05-22T05:57:47.924Z,101191.31
2023-05-22T06:00:22.644Z,101175.09
2023-05-22T06:02:51.712Z,101182.38
2023-05-22T06:05:31.259Z,101184.16
2023-05-22T06:08:11.507Z,101186.22
2023-05-22T06:10:40.106Z,101179.53
2023-05-22T06:13:12.684Z,101192.88
2023-05-22T06:15:40.519Z,101192.72
2023-05-22T06:18:07.714Z,101193.75
2023-05-22T06:20:36.968Z,101196.34
2023-05-22T06:23:04.701Z,101195.09
2023-05-22T06:25:31.487Z,101188.66
2023-05-22T06:27:58.667Z,101199.09
2023-05-22T06:30:43.719Z,101201.03
2023-05-22T06:33:15.240Z,101198.66
2023-05-22T06:35:43.241Z,101206.88
2023-05-22T06:38:10.317Z,101199.44
2023-05-22T06:40:37.981Z,101206.88
2023-05-22T06:43:16.437Z,101210.56
2023-05-22T06:45:54.091Z,101207.09
2023-05-22T06:48:38.087Z,101213.53
2023-05-22T06:51:16.592Z,101218.25
2023-05-22T06:53:47.817Z,101221.00
2023-05-22T06:56:19.794Z,101224.13
2023-05-22T06:58:56.411Z,101217.66
2023-05-22T07:01:31.674Z,101217.66
2023-05-22T07:04:09.228Z,101221.81
2023-05-22T07:06:41.732Z,101227.28
2023-05-22T07:09:10.995Z,101231.13
2023-05-22T07:11:38.151Z,101233.28
2023-05-22T07:14:05.058Z,101235.84
2023-05-22T07:16:31.936Z,101226.06
2023-05-22T07:19:02.158Z,101233.13
2023-05-22T07:21:31.990Z,101235.38
2023-05-22T07:23:58.905Z,101245.72
2023-05-22T07:26:27.916Z,101242.06
2023-05-22T07:29:02.907Z,101240.72
2023-05-22T07:31:31.110Z,101247.53
2023-05-22T07:33:58.093Z,101242.13
2023-05-22T07:36:25.107Z,101243.94
2023-05-22T07:38:52.042Z,101258.38
2023-05-22T07:41:19.302Z,101251.34
2023-05-22T07:43:46.452Z,101259.44
2023-05-22T07:46:16.590Z,101249.78
2023-05-22T07:49:08.139Z,101256.97
2023-05-22T07:51:36.258Z,101260.56
2023-05-22T07:54:03.036Z,101263.66
2023-05-22T07:56:30.831Z,101256.69
2023-05-22T07:58:57.608Z,101256.56
2023-05-22T08:01:31.646Z,101254.88
2023-05-22T08:03:58.686Z,101251.78
2023-05-22T08:06:25.812Z,101252.59
2023-05-22T08:08:53.130Z,101252.84
2023-05-22T08:11:19.906Z,101250.28
2023-05-22T08:13:46.713Z,101252.28
2023-05-22T08:16:13.682Z,101253.81
2023-05-22T08:18:40.742Z,101251.69
2023-05-22T08:21:07.752Z,101255.31
2023-05-22T08:23:36.414Z,101255.69
2023-05-22T08:26:03.640Z,101257.38
2023-05-22T08:28:30.904Z,101262.47
2023-05-22T08:30:58.058Z,101265.91
2023-05-22T08:33:24.878Z,101262.13
2023-05-22T08:35:51.668Z,101264.56
2023-05-22T08:38:18.648Z,101275.81
2023-05-22T08:40:48.914Z,101271.00
2023-05-22T08:43:16.154Z,101279.47
2023-05-22T08:45:44.210Z,101268.84
2023-05-22T08:48:13.631Z,101271.59
2023-05-22T08:50:44.696Z,101274.22
2023-05-22T08:53:13.374Z,101271.50
2023-05-22T08:55:41.034Z,101268.13
2023-05-22T08:58:08.846Z,101277.91
2023-05-22T09:00:35.958Z,101275.66
2023-05-22T09:03:02.980Z,101279.81
2023-05-22T09:05:30.509Z,101282.19
2023-05-22T09:08:02.662Z,101284.72
2023-05-22T09:10:32.436Z,101291.38
2023-05-22T09:13:09.196Z,101273.44
2023-05-22T09:15:36.858Z,101274.81
2023-05-22T09:18:05.044Z,101273.94
2023-05-22T09:20:36.041Z,101282.25
2023-05-22T09:23:11.353Z,101286.22
2023-05-22T09:25:38.162Z,101281.84
2023-05-22T09:28:04.972Z,101288.50
2023-05-22T09:30:34.742Z,101283.69
2023-05-22T09:33:01.566Z,101287.78
2023-05-22T09:35:28.531Z,101290.13
2023-05-22T09:37:55.361Z,101287.81
2023-05-22T09:40:22.292Z,101294.94
2023-05-22T09:42:49.107Z,101296.25
2023-05-22T09:45:20.077Z,101295.59
2023-05-22T09:47:50.896Z,101288.06
2023-05-22T09:50:18.592Z,101294.03
2023-05-22T09:52:46.854Z,101286.44
2023-05-22T09:55:14.916Z,101292.25
2023-05-22T09:57:48.348Z,101286.94
2023-05-22T10:00:19.425Z,101291.06
2023-05-22T10:02:51.140Z,101290.44
2023-05-22T10:05:24.375Z,101293.53
2023-05-22T10:07:57.027Z,101294.78
2023-05-22T10:10:25.368Z,101297.78
2023-05-22T10:12:57.121Z,101294.34
2023-05-22T10:15:24.110Z,101293.91
2023-05-22T10:17:51.291Z,101294.63
2023-05-22T10:20:19.216Z,101295.16
2023-05-22T10:22:47.145Z,101295.22
2023-05-22T10:25:14.083Z,101290.44
2023-05-22T10:27:41.089Z,101288.28
2023-05-22T10:30:40.713Z,101288.50
2023-05-22T10:33:47.105Z,101287.09
2023-05-22T10:36:27.724Z,101284.66
2023-05-22T10:38:57.725Z,101280.59
2023-05-22T10:41:24.792Z,101273.44
2023-05-22T10:43:51.982Z,101264.31
2023-05-22T10:46:18.980Z,101270.91
2023-05-22T10:48:47.660Z,101278.03
2023-05-22T10:51:18.871Z,101282.94
2023-05-22T10:53:45.922Z,101276.94
2023-05-22T10:56:14.408Z,101281.69
2023-05-22T10:58:46.023Z,101281.34
2023-05-22T11:01:19.128Z,101285.09
2023-05-22T11:03:59.811Z,101281.38
2023-05-22T11:06:46.112Z,101279.03
2023-05-22T11:09:41.391Z,101279.97
2023-05-22T11:12:24.434Z,101285.69
2023-05-22T11:14:51.346Z,101289.31
2023-05-22T11:17:21.961Z,101279.94
2023-05-22T11:19:59.987Z,101290.44
2023-05-22T11:22:37.579Z,101283.06
2023-05-22T11:25:08.102Z,101287.66
2023-05-22T11:27:36.507Z,101284.59
2023-05-22T11:30:04.088Z,101276.13
2023-05-22T11:32:31.192Z,101284.84
2023-05-22T11:34:58.185Z,101286.91
2023-05-22T11:37:25.283Z,101282.09
2023-05-22T11:39:58.790Z,101281.72
2023-05-22T11:42:25.788Z,101283.41
2023-05-22T11:44:52.560Z,101278.75
2023-05-22T11:47:19.408Z,101271.59
2023-05-22T11:49:49.318Z,101273.44
2023-05-22T11:52:16.817Z,101273.06
2023-05-22T11:54:47.381Z,101270.56
2023-05-22T11:57:14.959Z,101271.97
2023-05-22T11:59:48.374Z,101277.56
2023-05-22T12:02:19.522Z,101275.31
2023-05-22T12:04:47.133Z,101281.47
2023-05-22T12:07:14.326Z,101285.56
2023-05-22T12:09:42.498Z,101274.06
2023-05-22T12:12:11.693Z,101273.41
2023-05-22T12:14:38.771Z,101276.59
2023-05-22T12:17:06.500Z,101274.56
2023-05-22T12:19:33.649Z,101263.81
2023-05-22T12:22:06.007Z,101262.19
2023-05-22T12:24:41.011Z,101265.97
2023-05-22T12:27:11.862Z,101249.66
2023-05-22T12:29:39.188Z,101260.91
2023-05-22T12:32:09.602Z,101271.56
2023-05-22T12:34:46.567Z,101260.50
2023-05-22T12:37:25.270Z,101262.13
2023-05-22T12:40:00.277Z,101249.31
2023-05-22T12:42:28.043Z,101257.16
2023-05-22T12:44:56.386Z,101261.69
2023-05-22T12:47:24.269Z,101258.06
2023-05-22T12:49:51.413Z,101261.00
2023-05-22T12:52:18.330Z,101252.28
2023-05-22T12:54:45.612Z,101254.59
2023-05-22T12:57:12.562Z,101249.06
2023-05-22T12:59:39.603Z,101250.53
2023-05-22T13:02:06.714Z,101253.91
2023-05-22T13:04:33.848Z,101258.94
2023-05-22T13:07:00.936Z,101245.81
2023-05-22T13:09:28.600Z,101240.78
2023-05-22T13:11:55.659Z,101245.88
2023-05-22T13:14:22.801Z,101239.56
2023-05-22T13:16:49.571Z,101241.41
2023-05-22T13:19:16.970Z,101253.88
2023-05-22T13:21:44.130Z,101249.59
2023-05-22T13:24:11.092Z,101241.16
2023-05-22T13:26:37.873Z,101237.38
2023-05-22T13:29:04.985Z,101243.69
2023-05-22T13:31:37.181Z,101249.16
2023-05-22T13:34:04.851Z,101246.25
2023-05-22T13:36:32.016Z,101240.44
2023-05-22T13:38:58.799Z,101248.25
2023-05-22T13:41:26.320Z,101249.72
2023-05-22T13:43:53.319Z,101250.72
2023-05-22T13:46:23.549Z,101256.78
2023-05-22T13:48:50.566Z,101256.66
2023-05-22T13:51:17.479Z,101259.69
2023-05-22T13:53:44.375Z,101263.81
2023-05-22T13:56:11.168Z,101258.50
2023-05-22T13:58:38.122Z,101254.72
2023-05-22T14:01:04.895Z,101258.41
2023-05-22T14:03:31.737Z,101252.19
2023-05-22T14:05:58.607Z,101252.66
2023-05-22T14:08:25.509Z,101251.66
2023-05-22T14:10:52.311Z,101255.44
2023-05-22T14:13:19.208Z,101256.13
2023-05-22T14:15:49.694Z,101254.28
2023-05-22T14:18:16.841Z,101244.47
2023-05-22T14:20:44.551Z,101246.81
2023-05-22T14:23:12.692Z,101247.25
2023-05-22T14:25:45.540Z,101252.63
2023-05-22T14:28:12.670Z,101256.41
2023-05-22T14:30:39.876Z,101250.78
2023-05-22T14:33:07.373Z,101264.91
2023-05-22T14:35:34.338Z,101247.16
2023-05-22T14:38:01.662Z,101249.31
2023-05-22T14:40:28.608Z,101246.13
2023-05-22T14:42:55.701Z,101243.59
2023-05-22T14:45:23.828Z,101261.53
2023-05-22T14:47:51.232Z,101258.41
2023-05-22T14:50:20.254Z,101266.25
2023-05-22T14:52:49.019Z,101252.84
2023-05-22T14:55:17.269Z,101244.25
2023-05-22T14:57:44.212Z,101256.09
2023-05-22T15:00:12.949Z,101256.94
2023-05-22T15:02:40.475Z,101248.78
2023-05-22T15:05:08.149Z,101251.41
2023-05-22T15:07:43.985Z,101255.38
2023-05-22T15:10:14.263Z,101264.31
2023-05-22T15:12:41.226Z,101264.03
2023-05-22T15:15:08.655Z,101264.19
2023-05-22T15:17:35.787Z,101253.38
2023-05-22T15:20:02.656Z,101250.94
2023-05-22T15:22:29.381Z,101246.88
2023-05-22T15:25:06.344Z,101246.31
2023-05-22T15:27:37.306Z,101244.72
2023-05-22T15:30:05.858Z,101244.75
2023-05-22T15:32:33.107Z,101239.75
2023-05-22T15:35:00.545Z,101251.44
2023-05-22T15:37:32.429Z,101251.03
2023-05-22T15:40:04.445Z,101250.91
2023-05-22T15:42:31.686Z,101259.34
2023-05-22T15:44:59.710Z,101257.53
2023-05-22T15:47:26.667Z,101253.72
2023-05-22T15:49:53.673Z,101265.09
2023-05-22T15:52:23.348Z,101262.41
2023-05-22T15:54:50.215Z,101263.63
2023-05-22T15:57:17.076Z,101261.31
2023-05-22T15:59:43.783Z,101262.81
2023-05-22T16:02:11.649Z,101269.34
2023-05-22T16:04:38.427Z,101264.53
2023-05-22T16:07:05.250Z,101274.31
2023-05-22T16:09:32.840Z,101268.69
2023-05-22T16:11:59.890Z,101270.31
2023-05-22T16:14:26.774Z,101268.69
2023-05-22T16:16:53.950Z,101277.28
2023-05-22T16:19:21.324Z,101274.34
2023-05-22T16:21:48.064Z,101284.72
2023-05-22T16:24:14.946Z,101281.88
2023-05-22T16:26:41.716Z,101286.00
2023-05-22T16:29:09.176Z,101282.53
2023-05-22T16:31:36.109Z,101285.94
2023-05-22T16:34:03.358Z,101294.69
2023-05-22T16:36:30.164Z,101289.56
2023-05-22T16:38:57.119Z,101289.84
2023-05-22T16:41:24.053Z,101287.59
2023-05-22T16:43:50.855Z,101295.34
2023-05-22T16:46:18.717Z,101287.59
2023-05-22T16:48:45.669Z,101300.69
2023-05-22T16:51:13.467Z,101292.69
2023-05-22T16:53:41.842Z,101285.44
2023-05-22T16:56:09.064Z,101284.66
2023-05-22T16:58:36.009Z,101284.09
2023-05-22T17:01:03.456Z,101282.59
2023-05-22T17:03:30.330Z,101280.75
2023-05-22T17:05:57.488Z,101290.09
2023-05-22T17:08:24.303Z,101284.50
2023-05-22T17:10:51.250Z,101290.78
2023-05-22T17:13:20.904Z,101289.19
2023-05-22T17:15:54.969Z,101295.66
2023-05-22T17:18:22.230Z,101297.94
2023-05-22T17:20:49.613Z,101300.03
2023-05-22T17:23:17.139Z,101293.38
2023-05-22T17:25:46.695Z,101286.69
2023-05-22T17:28:14.615Z,101301.25
2023-05-22T17:30:43.038Z,101311.94
2023-05-22T17:33:11.110Z,101310.88
2023-05-22T17:35:38.635Z,101307.13
2023-05-22T17:38:07.820Z,101307.16
2023-05-22T17:40:44.176Z,101314.72
2023-05-22T17:43:12.322Z,101311.69
2023-05-22T17:45:45.066Z,101312.03
2023-05-22T17:48:14.603Z,101310.72
2023-05-22T17:50:42.187Z,101319.22
2023-05-22T17:53:13.541Z,101315.91
2023-05-22T17:55:40.359Z,101316.81
2023-05-22T17:58:07.522Z,101313.78
2023-05-22T18:00:34.287Z,101319.72
2023-05-22T18:03:01.366Z,101324.81
2023-05-22T18:05:28.376Z,101318.66
2023-05-22T18:07:55.114Z,101318.31
2023-05-22T18:10:23.923Z,101321.91
2023-05-22T18:12:50.712Z,101329.50
2023-05-22T18:15:17.628Z,101321.84
2023-05-22T18:17:44.546Z,101326.19
2023-05-22T18:20:12.375Z,101327.22
2023-05-22T18:22:40.084Z,101324.78
2023-05-22T18:25:07.479Z,101329.09
2023-05-22T18:27:34.875Z,101336.97
2023-05-22T18:30:02.909Z,101341.41
2023-05-22T18:32:32.474Z,101334.75
2023-05-22T18:35:00.280Z,101335.72
2023-05-22T18:37:27.000Z,101333.75
2023-05-22T18:39:53.822Z,101333.38
2023-05-22T18:42:20.691Z,101328.59
2023-05-22T18:44:49.003Z,101321.38
2023-05-22T18:47:18.755Z,101332.13
2023-05-22T18:49:45.631Z,101345.94
2023-05-22T18:52:12.506Z,101349.50
2023-05-22T18:54:39.349Z,101337.00
2023-05-22T18:57:06.346Z,101337.72
2023-05-22T18:59:35.513Z,101335.41
2023-05-22T19:02:02.314Z,101336.72
2023-05-22T19:04:29.198Z,101337.78
2023-05-22T19:06:56.698Z,101343.03
2023-05-22T19:09:24.808Z,101341.78
2023-05-22T19:11:51.631Z,101340.19
2023-05-22T19:14:18.557Z,101346.63
2023-05-22T19:16:45.497Z,101335.72
2023-05-22T19:19:12.476Z,101346.56
2023-05-22T19:21:39.425Z,101350.06
2023-05-22T19:24:06.952Z,101346.25
2023-05-22T19:26:33.823Z,101345.09
2023-05-22T19:29:00.629Z,101354.88
2023-05-22T19:31:28.547Z,101355.47
2023-05-22T19:33:55.683Z,101358.91
2023-05-22T19:36:22.581Z,101361.97
2023-05-22T19:38:50.713Z,101376.41
2023-05-22T19:41:22.024Z,101360.13
2023-05-22T19:43:48.933Z,101370.47
2023-05-22T19:46:16.562Z,101365.78
2023-05-22T19:48:43.399Z,101376.56
2023-05-22T19:51:10.705Z,101386.78
2023-05-22T19:53:37.805Z,101379.88
2023-05-22T19:56:04.828Z,101385.56
2023-05-22T19:58:32.029Z,101383.94
2023-05-22T20:00:59.109Z,101392.31
2023-05-22T20:03:26.867Z,101391.16
2023-05-22T20:05:54.233Z,101393.47
2023-05-22T20:08:25.666Z,101406.81
2023-05-22T20:10:52.812Z,101406.44
2023-05-22T20:13:19.884Z,101414.28
2023-05-22T20:15:47.929Z,101422.09
2023-05-22T20:18:15.891Z,101422.88
2023-05-22T20:20:43.192Z,101424.84
2023-05-22T20:23:10.387Z,101435.09
2023-05-22T20:25:37.734Z,101422.53
2023-05-22T20:28:05.202Z,101438.25
2023-05-22T20:30:36.276Z,101437.97
2023-05-22T20:33:03.200Z,101440.13
2023-05-22T20:35:31.389Z,101434.75
2023-05-22T20:38:03.355Z,101441.34
2023-05-22T20:40:33.020Z,101441.91
2023-05-22T20:43:03.790Z,101446.72
2023-05-22T20:45:34.548Z,101453.25
2023-05-22T20:48:01.926Z,101446.34
2023-05-22T20:50:28.942Z,101456.06
2023-05-22T20:52:56.150Z,101455.53
2023-05-22T20:55:23.248Z,101463.31
2023-05-22T20:57:50.379Z,101464.13
2023-05-22T21:00:17.824Z,101467.41
2023-05-22T21:02:44.840Z,101466.81
2023-05-22T21:05:12.269Z,101477.75
2023-05-22T21:07:39.720Z,101484.66
2023-05-22T21:10:07.214Z,101479.53
2023-05-22T21:12:34.227Z,101480.69
2023-05-22T21:15:01.104Z,101482.47
2023-05-22T21:17:30.804Z,101477.16
2023-05-22T21:20:04.582Z,101480.34
2023-05-22T21:22:31.536Z,101479.63
2023-05-22T21:24:58.835Z,101491.00
2023-05-22T21:27:25.778Z,101492.53
2023-05-22T21:29:52.579Z,101497.00
2023-05-22T21:32:19.375Z,101485.84
2023-05-22T21:34:46.752Z,101490.38
2023-05-22T21:37:16.927Z,101490.84
2023-05-22T21:39:44.971Z,101494.75
2023-05-22T21:42:11.922Z,101498.06
2023-05-22T21:47:42.070Z,101496.03
2023-05-22T21:50:09.362Z,101509.03
2023-05-22T21:52:36.743Z,101506.09
2023-05-22T21:55:04.101Z,101518.03
2023-05-22T21:57:32.101Z,101518.00
2023-05-22T21:59:59.209Z,101516.88
2023-05-22T22:02:26.229Z,101527.34
2023-05-22T22:04:53.024Z,101527.44
2023-05-22T22:07:19.982Z,101540.16
2023-05-22T22:09:56.154Z,101535.44
2023-05-22T22:12:23.234Z,101530.59
2023-05-22T22:14:51.038Z,101547.44
2023-05-22T22:17:17.972Z,101547.41
2023-05-22T22:19:48.177Z,101553.31
2023-05-22T22:22:15.005Z,101542.38
2023-05-22T22:24:41.811Z,101556.06
2023-05-22T22:27:08.749Z,101546.13
2023-05-22T22:29:35.745Z,101557.28
2023-05-22T22:32:02.756Z,101555.25
2023-05-22T22:34:29.711Z,101558.31
2023-05-22T22:36:57.451Z,101555.47
2023-05-22T22:39:26.557Z,101566.09
2023-05-22T22:41:53.666Z,101565.50
2023-05-22T22:44:21.103Z,101577.16
2023-05-22T22:46:48.602Z,101577.66
2023-05-22T22:49:15.907Z,101579.91
2023-05-22T22:51:52.322Z,101582.19
2023-05-22T22:54:19.306Z,101584.47
2023-05-22T22:56:49.841Z,101589.16
2023-05-22T22:59:19.500Z,101588.78
2023-05-22T23:01:46.538Z,101583.00
2023-05-22T23:04:16.016Z,101585.28
2023-05-22T23:06:43.118Z,101586.16
2023-05-22T23:09:11.264Z,101586.28
2023-05-22T23:11:38.873Z,101593.28
2023-05-22T23:14:09.934Z,101587.91
2023-05-22T23:16:40.813Z,101590.16
2023-05-22T23:19:09.133Z,101591.22
2023-05-22T23:21:37.077Z,101596.56
2023-05-22T23:24:05.004Z,101597.00
2023-05-22T23:26:32.822Z,101596.09
2023-05-22T23:29:00.229Z,101605.25
2023-05-22T23:31:30.487Z,101598.34
2023-05-22T23:33:58.171Z,101599.44
2023-05-22T23:36:25.625Z,101599.44
2023-05-22T23:38:53.081Z,101595.41
2023-05-22T23:41:20.187Z,101599.31
2023-05-22T23:43:47.639Z,101594.28
2023-05-22T23:46:14.781Z,101584.28
2023-05-22T23:48:42.436Z,101592.69
2023-05-22T23:51:09.847Z,101585.56
2023-05-22T23:53:37.018Z,101597.81
2023-05-22T23:56:04.674Z,101598.25
2023-05-22T23:58:32.285Z,101596.38
